You are listening to:
EHVL CTAF/Range Control - Vlieland, Netherlands

EHVL 161125Z AUTO 21019KT 9999 FEW008 BKN010 OVC012 09/07 Q1002 GRN

If stream does not start automatically press the play button